sensor_id;sensor_type;location;lat;lon;timestamp;P1;durP1;ratioP1;P2;durP2;ratioP2
54855;SDS011;40748;53.168;5.800;2022-07-17T00:01:29;10.30;;;3.90;;
54855;SDS011;40748;53.168;5.800;2022-07-17T00:03:59;10.00;;;4.20;;
54855;SDS011;40748;53.168;5.800;2022-07-17T00:06:29;10.00;;;4.20;;
54855;SDS011;40748;53.168;5.800;2022-07-17T00:08:59;10.00;;;4.20;;
54855;SDS011;40748;53.168;5.800;2022-07-17T00:11:29;10.00;;;4.20;;
54855;SDS011;40748;53.168;5.800;2022-07-17T00:13:59;14.70;;;4.50;;
54855;SDS011;40748;53.168;5.800;2022-07-17T00:16:29;14.70;;;4.50;;
54855;SDS011;40748;53.168;5.800;2022-07-17T00:18:59;14.70;;;4.50;;
54855;SDS011;40748;53.168;5.800;2022-07-17T00:21:29;14.70;;;4.50;;
54855;SDS011;40748;53.168;5.800;2022-07-17T00:23:59;23.40;;;4.40;;
54855;SDS011;40748;53.168;5.800;2022-07-17T00:26:29;23.40;;;4.40;;
54855;SDS011;40748;53.168;5.800;2022-07-17T00:28:59;23.40;;;4.40;;
54855;SDS011;40748;53.168;5.800;2022-07-17T00:31:29;23.40;;;4.40;;
54855;SDS011;40748;53.168;5.800;2022-07-17T00:33:59;10.10;;;3.90;;
54855;SDS011;40748;53.168;5.800;2022-07-17T00:36:29;10.10;;;3.90;;
54855;SDS011;40748;53.168;5.800;2022-07-17T00:38:59;10.10;;;3.90;;
54855;SDS011;40748;53.168;5.800;2022-07-17T00:41:29;10.10;;;3.90;;
54855;SDS011;40748;53.168;5.800;2022-07-17T00:44:04;12.20;;;3.80;;
54855;SDS011;40748;53.168;5.800;2022-07-17T00:48:59;12.20;;;3.80;;
54855;SDS011;40748;53.168;5.800;2022-07-17T00:51:29;12.20;;;3.80;;
54855;SDS011;40748;53.168;5.800;2022-07-17T00:53:59;10.10;;;4.20;;
54855;SDS011;40748;53.168;5.800;2022-07-17T00:56:29;10.10;;;4.20;;
54855;SDS011;40748;53.168;5.800;2022-07-17T00:59:00;10.10;;;4.20;;
54855;SDS011;40748;53.168;5.800;2022-07-17T01:01:29;10.10;;;4.20;;
54855;SDS011;40748;53.168;5.800;2022-07-17T01:03:59;11.50;;;4.10;;
54855;SDS011;40748;53.168;5.800;2022-07-17T01:06:29;11.50;;;4.10;;
54855;SDS011;40748;53.168;5.800;2022-07-17T01:09:00;11.50;;;4.10;;
54855;SDS011;40748;53.168;5.800;2022-07-17T01:11:29;11.50;;;4.10;;
54855;SDS011;40748;53.168;5.800;2022-07-17T01:13:59;9.10;;;4.20;;
54855;SDS011;40748;53.168;5.800;2022-07-17T01:18:59;9.10;;;4.20;;
54855;SDS011;40748;53.168;5.800;2022-07-17T01:21:36;9.10;;;4.20;;
54855;SDS011;40748;53.168;5.800;2022-07-17T01:23:59;10.30;;;4.30;;
54855;SDS011;40748;53.168;5.800;2022-07-17T01:26:29;10.30;;;4.30;;
54855;SDS011;40748;53.168;5.800;2022-07-17T01:28:59;10.30;;;4.30;;
54855;SDS011;40748;53.168;5.800;2022-07-17T01:31:29;10.30;;;4.30;;
54855;SDS011;40748;53.168;5.800;2022-07-17T01:34:00;12.20;;;4.50;;
54855;SDS011;40748;53.168;5.800;2022-07-17T01:38:59;12.20;;;4.50;;
54855;SDS011;40748;53.168;5.800;2022-07-17T01:41:29;12.20;;;4.50;;
54855;SDS011;40748;53.168;5.800;2022-07-17T01:43:59;9.70;;;4.80;;
54855;SDS011;40748;53.168;5.800;2022-07-17T01:51:29;9.70;;;4.80;;
54855;SDS011;40748;53.168;5.800;2022-07-17T01:53:59;11.80;;;4.80;;
54855;SDS011;40748;53.168;5.800;2022-07-17T01:58:59;11.80;;;4.80;;
54855;SDS011;40748;53.168;5.800;2022-07-17T02:01:29;11.80;;;4.80;;
54855;SDS011;40748;53.168;5.800;2022-07-17T02:03:59;11.90;;;3.90;;
54855;SDS011;40748;53.168;5.800;2022-07-17T02:06:29;11.90;;;3.90;;
54855;SDS011;40748;53.168;5.800;2022-07-17T02:08:59;11.90;;;3.90;;
54855;SDS011;40748;53.168;5.800;2022-07-17T02:11:29;11.90;;;3.90;;
54855;SDS011;40748;53.168;5.800;2022-07-17T02:13:59;8.50;;;4.00;;
54855;SDS011;40748;53.168;5.800;2022-07-17T02:18:59;8.50;;;4.00;;
54855;SDS011;40748;53.168;5.800;2022-07-17T02:21:29;8.50;;;4.00;;
54855;SDS011;40748;53.168;5.800;2022-07-17T02:23:59;10.00;;;4.00;;
54855;SDS011;40748;53.168;5.800;2022-07-17T02:28:59;10.00;;;4.00;;
54855;SDS011;40748;53.168;5.800;2022-07-17T02:31:29;10.00;;;4.00;;
54855;SDS011;40748;53.168;5.800;2022-07-17T02:33:59;13.40;;;4.20;;
54855;SDS011;40748;53.168;5.800;2022-07-17T02:36:29;13.40;;;4.20;;
54855;SDS011;40748;53.168;5.800;2022-07-17T02:38:59;13.40;;;4.20;;
54855;SDS011;40748;53.168;5.800;2022-07-17T02:41:29;13.40;;;4.20;;
54855;SDS011;40748;53.168;5.800;2022-07-17T02:43:59;9.60;;;3.40;;
54855;SDS011;40748;53.168;5.800;2022-07-17T02:46:29;9.60;;;3.40;;
54855;SDS011;40748;53.168;5.800;2022-07-17T02:48:59;9.60;;;3.40;;
54855;SDS011;40748;53.168;5.800;2022-07-17T02:51:29;9.60;;;3.40;;
54855;SDS011;40748;53.168;5.800;2022-07-17T02:53:59;8.70;;;3.60;;
54855;SDS011;40748;53.168;5.800;2022-07-17T02:56:29;8.70;;;3.60;;
54855;SDS011;40748;53.168;5.800;2022-07-17T02:58:59;8.70;;;3.60;;
54855;SDS011;40748;53.168;5.800;2022-07-17T03:01:29;8.70;;;3.60;;
54855;SDS011;40748;53.168;5.800;2022-07-17T03:03:59;10.30;;;3.70;;
54855;SDS011;40748;53.168;5.800;2022-07-17T03:08:59;10.30;;;3.70;;
54855;SDS011;40748;53.168;5.800;2022-07-17T03:11:29;10.30;;;3.70;;
54855;SDS011;40748;53.168;5.800;2022-07-17T03:16:29;10.50;;;4.10;;
54855;SDS011;40748;53.168;5.800;2022-07-17T03:18:59;10.50;;;4.10;;
54855;SDS011;40748;53.168;5.800;2022-07-17T03:21:29;10.50;;;4.10;;
54855;SDS011;40748;53.168;5.800;2022-07-17T03:23:59;9.60;;;4.00;;
54855;SDS011;40748;53.168;5.800;2022-07-17T03:26:29;9.60;;;4.00;;
54855;SDS011;40748;53.168;5.800;2022-07-17T03:28:59;9.60;;;4.00;;
54855;SDS011;40748;53.168;5.800;2022-07-17T03:31:29;9.60;;;4.00;;
54855;SDS011;40748;53.168;5.800;2022-07-17T03:33:59;11.60;;;4.50;;
54855;SDS011;40748;53.168;5.800;2022-07-17T03:36:29;11.60;;;4.50;;
54855;SDS011;40748;53.168;5.800;2022-07-17T03:38:59;11.60;;;4.50;;
54855;SDS011;40748;53.168;5.800;2022-07-17T03:41:29;11.60;;;4.50;;
54855;SDS011;40748;53.168;5.800;2022-07-17T03:43:59;10.10;;;4.00;;
54855;SDS011;40748;53.168;5.800;2022-07-17T03:46:29;10.10;;;4.00;;
54855;SDS011;40748;53.168;5.800;2022-07-17T03:48:59;10.10;;;4.00;;
54855;SDS011;40748;53.168;5.800;2022-07-17T03:51:29;10.10;;;4.00;;
54855;SDS011;40748;53.168;5.800;2022-07-17T03:53:59;9.20;;;3.90;;
54855;SDS011;40748;53.168;5.800;2022-07-17T03:56:29;9.20;;;3.90;;
54855;SDS011;40748;53.168;5.800;2022-07-17T03:58:59;9.20;;;3.90;;
54855;SDS011;40748;53.168;5.800;2022-07-17T04:01:29;9.20;;;3.90;;
54855;SDS011;40748;53.168;5.800;2022-07-17T04:03:59;7.80;;;3.90;;
54855;SDS011;40748;53.168;5.800;2022-07-17T04:06:29;7.80;;;3.90;;
54855;SDS011;40748;53.168;5.800;2022-07-17T04:08:59;7.80;;;3.90;;
54855;SDS011;40748;53.168;5.800;2022-07-17T04:11:29;7.80;;;3.90;;
54855;SDS011;40748;53.168;5.800;2022-07-17T04:13:59;11.10;;;3.50;;
54855;SDS011;40748;53.168;5.800;2022-07-17T04:16:29;11.10;;;3.50;;
54855;SDS011;40748;53.168;5.800;2022-07-17T04:18:59;11.10;;;3.50;;
54855;SDS011;40748;53.168;5.800;2022-07-17T04:21:29;11.10;;;3.50;;
54855;SDS011;40748;53.168;5.800;2022-07-17T04:23:59;9.00;;;3.60;;
54855;SDS011;40748;53.168;5.800;2022-07-17T04:26:29;9.00;;;3.60;;
54855;SDS011;40748;53.168;5.800;2022-07-17T04:28:59;9.00;;;3.60;;
54855;SDS011;40748;53.168;5.800;2022-07-17T04:31:29;9.00;;;3.60;;
54855;SDS011;40748;53.168;5.800;2022-07-17T04:33:59;10.60;;;3.60;;
54855;SDS011;40748;53.168;5.800;2022-07-17T04:36:29;10.60;;;3.60;;
54855;SDS011;40748;53.168;5.800;2022-07-17T04:38:59;10.60;;;3.60;;
54855;SDS011;40748;53.168;5.800;2022-07-17T04:41:29;10.60;;;3.60;;
54855;SDS011;40748;53.168;5.800;2022-07-17T04:43:59;10.80;;;3.70;;
54855;SDS011;40748;53.168;5.800;2022-07-17T04:46:29;10.80;;;3.70;;
54855;SDS011;40748;53.168;5.800;2022-07-17T04:48:59;10.80;;;3.70;;
54855;SDS011;40748;53.168;5.800;2022-07-17T04:51:29;10.80;;;3.70;;
54855;SDS011;40748;53.168;5.800;2022-07-17T04:53:59;8.20;;;3.30;;
54855;SDS011;40748;53.168;5.800;2022-07-17T04:56:29;8.20;;;3.30;;
54855;SDS011;40748;53.168;5.800;2022-07-17T04:58:59;8.20;;;3.30;;
54855;SDS011;40748;53.168;5.800;2022-07-17T05:01:29;8.20;;;3.30;;
54855;SDS011;40748;53.168;5.800;2022-07-17T05:03:59;10.30;;;3.20;;
54855;SDS011;40748;53.168;5.800;2022-07-17T05:06:29;10.30;;;3.20;;
54855;SDS011;40748;53.168;5.800;2022-07-17T05:08:59;10.30;;;3.20;;
54855;SDS011;40748;53.168;5.800;2022-07-17T05:11:29;10.30;;;3.20;;
54855;SDS011;40748;53.168;5.800;2022-07-17T05:13:59;8.80;;;3.10;;
54855;SDS011;40748;53.168;5.800;2022-07-17T05:16:29;8.80;;;3.10;;
54855;SDS011;40748;53.168;5.800;2022-07-17T05:18:59;8.80;;;3.10;;
54855;SDS011;40748;53.168;5.800;2022-07-17T05:21:29;8.80;;;3.10;;
54855;SDS011;40748;53.168;5.800;2022-07-17T05:23:59;8.60;;;3.20;;
54855;SDS011;40748;53.168;5.800;2022-07-17T05:26:29;8.60;;;3.20;;
54855;SDS011;40748;53.168;5.800;2022-07-17T05:28:59;8.60;;;3.20;;
54855;SDS011;40748;53.168;5.800;2022-07-17T05:31:29;8.60;;;3.20;;
54855;SDS011;40748;53.168;5.800;2022-07-17T05:33:59;10.20;;;3.50;;
54855;SDS011;40748;53.168;5.800;2022-07-17T05:36:29;10.20;;;3.50;;
54855;SDS011;40748;53.168;5.800;2022-07-17T05:38:59;10.20;;;3.50;;
54855;SDS011;40748;53.168;5.800;2022-07-17T05:41:29;10.20;;;3.50;;
54855;SDS011;40748;53.168;5.800;2022-07-17T05:43:59;8.30;;;3.00;;
54855;SDS011;40748;53.168;5.800;2022-07-17T05:46:29;8.30;;;3.00;;
54855;SDS011;40748;53.168;5.800;2022-07-17T05:48:59;8.30;;;3.00;;
54855;SDS011;40748;53.168;5.800;2022-07-17T05:51:29;8.30;;;3.00;;
54855;SDS011;40748;53.168;5.800;2022-07-17T05:53:59;11.30;;;3.10;;
54855;SDS011;40748;53.168;5.800;2022-07-17T05:56:29;11.30;;;3.10;;
54855;SDS011;40748;53.168;5.800;2022-07-17T05:58:59;11.30;;;3.10;;
54855;SDS011;40748;53.168;5.800;2022-07-17T06:01:29;11.30;;;3.10;;
54855;SDS011;40748;53.168;5.800;2022-07-17T06:03:59;11.40;;;3.30;;
54855;SDS011;40748;53.168;5.800;2022-07-17T06:06:29;11.40;;;3.30;;
54855;SDS011;40748;53.168;5.800;2022-07-17T06:08:59;11.40;;;3.30;;
54855;SDS011;40748;53.168;5.800;2022-07-17T06:11:29;11.40;;;3.30;;
54855;SDS011;40748;53.168;5.800;2022-07-17T06:13:59;7.00;;;2.60;;
54855;SDS011;40748;53.168;5.800;2022-07-17T06:16:29;7.00;;;2.60;;
54855;SDS011;40748;53.168;5.800;2022-07-17T06:18:59;7.00;;;2.60;;
54855;SDS011;40748;53.168;5.800;2022-07-17T06:21:29;7.00;;;2.60;;
54855;SDS011;40748;53.168;5.800;2022-07-17T06:23:59;9.00;;;2.90;;
54855;SDS011;40748;53.168;5.800;2022-07-17T06:26:29;9.00;;;2.90;;
54855;SDS011;40748;53.168;5.800;2022-07-17T06:28:59;9.00;;;2.90;;
54855;SDS011;40748;53.168;5.800;2022-07-17T06:31:29;9.00;;;2.90;;
54855;SDS011;40748;53.168;5.800;2022-07-17T06:33:59;9.20;;;2.70;;
54855;SDS011;40748;53.168;5.800;2022-07-17T06:36:29;9.20;;;2.70;;
54855;SDS011;40748;53.168;5.800;2022-07-17T06:38:59;9.20;;;2.70;;
54855;SDS011;40748;53.168;5.800;2022-07-17T06:41:29;9.20;;;2.70;;
54855;SDS011;40748;53.168;5.800;2022-07-17T06:43:59;7.00;;;2.60;;
54855;SDS011;40748;53.168;5.800;2022-07-17T06:46:29;7.00;;;2.60;;
54855;SDS011;40748;53.168;5.800;2022-07-17T06:48:59;7.00;;;2.60;;
54855;SDS011;40748;53.168;5.800;2022-07-17T06:51:29;7.00;;;2.60;;
54855;SDS011;40748;53.168;5.800;2022-07-17T06:53:59;9.20;;;2.60;;
54855;SDS011;40748;53.168;5.800;2022-07-17T06:56:29;9.20;;;2.60;;
54855;SDS011;40748;53.168;5.800;2022-07-17T06:58:59;9.20;;;2.60;;
54855;SDS011;40748;53.168;5.800;2022-07-17T07:01:29;9.20;;;2.60;;
54855;SDS011;40748;53.168;5.800;2022-07-17T07:03:59;6.00;;;1.80;;
54855;SDS011;40748;53.168;5.800;2022-07-17T07:06:29;6.00;;;1.80;;
54855;SDS011;40748;53.168;5.800;2022-07-17T07:08:59;6.00;;;1.80;;
54855;SDS011;40748;53.168;5.800;2022-07-17T07:11:29;6.00;;;1.80;;
54855;SDS011;40748;53.168;5.800;2022-07-17T07:13:59;10.00;;;1.60;;
54855;SDS011;40748;53.168;5.800;2022-07-17T07:16:29;10.00;;;1.60;;
54855;SDS011;40748;53.168;5.800;2022-07-17T07:18:59;10.00;;;1.60;;
54855;SDS011;40748;53.168;5.800;2022-07-17T07:21:29;10.00;;;1.60;;
54855;SDS011;40748;53.168;5.800;2022-07-17T07:23:59;7.60;;;1.50;;
54855;SDS011;40748;53.168;5.800;2022-07-17T07:26:29;7.60;;;1.50;;
54855;SDS011;40748;53.168;5.800;2022-07-17T07:28:59;7.60;;;1.50;;
54855;SDS011;40748;53.168;5.800;2022-07-17T07:31:29;7.60;;;1.50;;
54855;SDS011;40748;53.168;5.800;2022-07-17T07:33:59;7.70;;;1.40;;
54855;SDS011;40748;53.168;5.800;2022-07-17T07:36:29;7.70;;;1.40;;
54855;SDS011;40748;53.168;5.800;2022-07-17T07:38:59;7.70;;;1.40;;
54855;SDS011;40748;53.168;5.800;2022-07-17T07:41:29;7.70;;;1.40;;
54855;SDS011;40748;53.168;5.800;2022-07-17T07:43:59;7.20;;;1.10;;
54855;SDS011;40748;53.168;5.800;2022-07-17T07:46:29;7.20;;;1.10;;
54855;SDS011;40748;53.168;5.800;2022-07-17T07:48:59;7.20;;;1.10;;
54855;SDS011;40748;53.168;5.800;2022-07-17T07:51:29;7.20;;;1.10;;
54855;SDS011;40748;53.168;5.800;2022-07-17T07:53:59;8.90;;;1.40;;
54855;SDS011;40748;53.168;5.800;2022-07-17T07:56:29;8.90;;;1.40;;
54855;SDS011;40748;53.168;5.800;2022-07-17T07:58:59;8.90;;;1.40;;
54855;SDS011;40748;53.168;5.800;2022-07-17T08:01:29;8.90;;;1.40;;
54855;SDS011;40748;53.168;5.800;2022-07-17T08:03:59;6.60;;;1.30;;
54855;SDS011;40748;53.168;5.800;2022-07-17T08:06:29;6.60;;;1.30;;
54855;SDS011;40748;53.168;5.800;2022-07-17T08:08:59;6.60;;;1.30;;
54855;SDS011;40748;53.168;5.800;2022-07-17T08:11:29;6.60;;;1.30;;
54855;SDS011;40748;53.168;5.800;2022-07-17T08:13:59;6.30;;;1.40;;
54855;SDS011;40748;53.168;5.800;2022-07-17T08:16:29;6.30;;;1.40;;
54855;SDS011;40748;53.168;5.800;2022-07-17T08:18:59;6.30;;;1.40;;
54855;SDS011;40748;53.168;5.800;2022-07-17T08:21:29;6.30;;;1.40;;
54855;SDS011;40748;53.168;5.800;2022-07-17T08:23:59;6.90;;;1.30;;
54855;SDS011;40748;53.168;5.800;2022-07-17T08:26:29;6.90;;;1.30;;
54855;SDS011;40748;53.168;5.800;2022-07-17T08:28:59;6.90;;;1.30;;
54855;SDS011;40748;53.168;5.800;2022-07-17T08:31:29;6.90;;;1.30;;
54855;SDS011;40748;53.168;5.800;2022-07-17T08:33:59;7.00;;;1.20;;
54855;SDS011;40748;53.168;5.800;2022-07-17T08:36:29;7.00;;;1.20;;
54855;SDS011;40748;53.168;5.800;2022-07-17T08:38:59;7.00;;;1.20;;
54855;SDS011;40748;53.168;5.800;2022-07-17T08:41:29;7.00;;;1.20;;
54855;SDS011;40748;53.168;5.800;2022-07-17T08:43:59;7.10;;;1.20;;
54855;SDS011;40748;53.168;5.800;2022-07-17T08:46:29;7.10;;;1.20;;
54855;SDS011;40748;53.168;5.800;2022-07-17T08:48:59;7.10;;;1.20;;
54855;SDS011;40748;53.168;5.800;2022-07-17T08:51:29;7.10;;;1.20;;
54855;SDS011;40748;53.168;5.800;2022-07-17T08:53:59;4.50;;;1.20;;
54855;SDS011;40748;53.168;5.800;2022-07-17T08:56:29;4.50;;;1.20;;
54855;SDS011;40748;53.168;5.800;2022-07-17T08:58:59;4.50;;;1.20;;
54855;SDS011;40748;53.168;5.800;2022-07-17T09:01:29;4.50;;;1.20;;
54855;SDS011;40748;53.168;5.800;2022-07-17T09:04:00;5.30;;;1.20;;
54855;SDS011;40748;53.168;5.800;2022-07-17T09:06:29;5.30;;;1.20;;
54855;SDS011;40748;53.168;5.800;2022-07-17T09:11:29;5.30;;;1.20;;
54855;SDS011;40748;53.168;5.800;2022-07-17T09:13:59;6.10;;;1.10;;
54855;SDS011;40748;53.168;5.800;2022-07-17T09:16:29;6.10;;;1.10;;
54855;SDS011;40748;53.168;5.800;2022-07-17T09:18:59;6.10;;;1.10;;
54855;SDS011;40748;53.168;5.800;2022-07-17T09:21:29;6.10;;;1.10;;
54855;SDS011;40748;53.168;5.800;2022-07-17T09:24:00;7.20;;;1.40;;
54855;SDS011;40748;53.168;5.800;2022-07-17T09:26:30;7.20;;;1.40;;
54855;SDS011;40748;53.168;5.800;2022-07-17T09:29:00;7.20;;;1.40;;
54855;SDS011;40748;53.168;5.800;2022-07-17T09:31:31;7.20;;;1.40;;
54855;SDS011;40748;53.168;5.800;2022-07-17T09:34:00;5.30;;;1.60;;
54855;SDS011;40748;53.168;5.800;2022-07-17T09:36:29;5.30;;;1.60;;
54855;SDS011;40748;53.168;5.800;2022-07-17T09:38:59;5.30;;;1.60;;
54855;SDS011;40748;53.168;5.800;2022-07-17T09:41:29;5.30;;;1.60;;
54855;SDS011;40748;53.168;5.800;2022-07-17T09:44:01;7.20;;;1.30;;
54855;SDS011;40748;53.168;5.800;2022-07-17T09:46:30;7.20;;;1.30;;
54855;SDS011;40748;53.168;5.800;2022-07-17T09:49:00;7.20;;;1.30;;
54855;SDS011;40748;53.168;5.800;2022-07-17T09:51:33;7.20;;;1.30;;
54855;SDS011;40748;53.168;5.800;2022-07-17T09:54:01;6.70;;;1.40;;
54855;SDS011;40748;53.168;5.800;2022-07-17T09:56:31;6.70;;;1.40;;
54855;SDS011;40748;53.168;5.800;2022-07-17T09:59:01;6.70;;;1.40;;
54855;SDS011;40748;53.168;5.800;2022-07-17T10:01:29;6.70;;;1.40;;
54855;SDS011;40748;53.168;5.800;2022-07-17T10:03:59;6.40;;;1.40;;
54855;SDS011;40748;53.168;5.800;2022-07-17T10:08:59;6.40;;;1.40;;
54855;SDS011;40748;53.168;5.800;2022-07-17T10:11:31;6.40;;;1.40;;
54855;SDS011;40748;53.168;5.800;2022-07-17T10:16:31;3.70;;;0.90;;
54855;SDS011;40748;53.168;5.800;2022-07-17T10:18:59;3.70;;;0.90;;
54855;SDS011;40748;53.168;5.800;2022-07-17T10:21:30;3.70;;;0.90;;
54855;SDS011;40748;53.168;5.800;2022-07-17T10:24:09;4.50;;;1.20;;
54855;SDS011;40748;53.168;5.800;2022-07-17T10:26:31;4.50;;;1.20;;
54855;SDS011;40748;53.168;5.800;2022-07-17T10:28:59;4.50;;;1.20;;
54855;SDS011;40748;53.168;5.800;2022-07-17T10:31:30;4.50;;;1.20;;
54855;SDS011;40748;53.168;5.800;2022-07-17T10:34:01;5.00;;;1.30;;
54855;SDS011;40748;53.168;5.800;2022-07-17T10:36:34;5.00;;;1.30;;
54855;SDS011;40748;53.168;5.800;2022-07-17T10:41:29;5.00;;;1.30;;
54855;SDS011;40748;53.168;5.800;2022-07-17T10:43:59;4.70;;;1.20;;
54855;SDS011;40748;53.168;5.800;2022-07-17T10:46:29;4.70;;;1.20;;
54855;SDS011;40748;53.168;5.800;2022-07-17T10:49:00;4.70;;;1.20;;
54855;SDS011;40748;53.168;5.800;2022-07-17T10:51:29;4.70;;;1.20;;
54855;SDS011;40748;53.168;5.800;2022-07-17T10:53:59;4.00;;;1.30;;
54855;SDS011;40748;53.168;5.800;2022-07-17T10:56:29;4.00;;;1.30;;
54855;SDS011;40748;53.168;5.800;2022-07-17T10:59:01;4.00;;;1.30;;
54855;SDS011;40748;53.168;5.800;2022-07-17T11:01:29;4.00;;;1.30;;
54855;SDS011;40748;53.168;5.800;2022-07-17T11:04:01;6.90;;;1.60;;
54855;SDS011;40748;53.168;5.800;2022-07-17T11:06:30;6.90;;;1.60;;
54855;SDS011;40748;53.168;5.800;2022-07-17T11:09:02;6.90;;;1.60;;
54855;SDS011;40748;53.168;5.800;2022-07-17T11:11:38;6.90;;;1.60;;
54855;SDS011;40748;53.168;5.800;2022-07-17T11:14:07;5.70;;;1.30;;
54855;SDS011;40748;53.168;5.800;2022-07-17T11:16:29;5.70;;;1.30;;
54855;SDS011;40748;53.168;5.800;2022-07-17T11:18:59;5.70;;;1.30;;
54855;SDS011;40748;53.168;5.800;2022-07-17T11:21:29;5.70;;;1.30;;
54855;SDS011;40748;53.168;5.800;2022-07-17T11:23:59;6.30;;;1.40;;
54855;SDS011;40748;53.168;5.800;2022-07-17T11:26:29;6.30;;;1.40;;
54855;SDS011;40748;53.168;5.800;2022-07-17T11:28:59;6.30;;;1.40;;
54855;SDS011;40748;53.168;5.800;2022-07-17T11:31:29;6.30;;;1.40;;
54855;SDS011;40748;53.168;5.800;2022-07-17T11:34:01;6.00;;;1.40;;
54855;SDS011;40748;53.168;5.800;2022-07-17T11:36:31;6.00;;;1.40;;
54855;SDS011;40748;53.168;5.800;2022-07-17T11:39:01;6.00;;;1.40;;
54855;SDS011;40748;53.168;5.800;2022-07-17T11:41:34;6.00;;;1.40;;
54855;SDS011;40748;53.168;5.800;2022-07-17T11:43:59;4.50;;;1.20;;
54855;SDS011;40748;53.168;5.800;2022-07-17T11:46:30;4.50;;;1.20;;
54855;SDS011;40748;53.168;5.800;2022-07-17T11:48:59;4.50;;;1.20;;
54855;SDS011;40748;53.168;5.800;2022-07-17T11:51:33;4.50;;;1.20;;
54855;SDS011;40748;53.168;5.800;2022-07-17T11:54:03;5.30;;;1.50;;
54855;SDS011;40748;53.168;5.800;2022-07-17T11:56:29;5.30;;;1.50;;
54855;SDS011;40748;53.168;5.800;2022-07-17T11:58:59;5.30;;;1.50;;
54855;SDS011;40748;53.168;5.800;2022-07-17T12:01:37;5.30;;;1.50;;
54855;SDS011;40748;53.168;5.800;2022-07-17T12:03:59;5.20;;;1.50;;
54855;SDS011;40748;53.168;5.800;2022-07-17T12:06:29;5.20;;;1.50;;
54855;SDS011;40748;53.168;5.800;2022-07-17T12:08:59;5.20;;;1.50;;
54855;SDS011;40748;53.168;5.800;2022-07-17T12:11:29;5.20;;;1.50;;
54855;SDS011;40748;53.168;5.800;2022-07-17T12:14:04;7.70;;;1.70;;
54855;SDS011;40748;53.168;5.800;2022-07-17T12:16:30;7.70;;;1.70;;
54855;SDS011;40748;53.168;5.800;2022-07-17T12:19:02;7.70;;;1.70;;
54855;SDS011;40748;53.168;5.800;2022-07-17T12:21:31;7.70;;;1.70;;
54855;SDS011;40748;53.168;5.800;2022-07-17T12:24:02;6.50;;;1.60;;
54855;SDS011;40748;53.168;5.800;2022-07-17T12:26:30;6.50;;;1.60;;
54855;SDS011;40748;53.168;5.800;2022-07-17T12:28:59;6.50;;;1.60;;
54855;SDS011;40748;53.168;5.800;2022-07-17T12:31:29;6.50;;;1.60;;
54855;SDS011;40748;53.168;5.800;2022-07-17T12:33:59;6.60;;;1.60;;
54855;SDS011;40748;53.168;5.800;2022-07-17T12:36:29;6.60;;;1.60;;
54855;SDS011;40748;53.168;5.800;2022-07-17T12:38:59;6.60;;;1.60;;
54855;SDS011;40748;53.168;5.800;2022-07-17T12:41:29;6.60;;;1.60;;
54855;SDS011;40748;53.168;5.800;2022-07-17T12:43:59;5.30;;;1.70;;
54855;SDS011;40748;53.168;5.800;2022-07-17T12:46:29;5.30;;;1.70;;
54855;SDS011;40748;53.168;5.800;2022-07-17T12:48:59;5.30;;;1.70;;
54855;SDS011;40748;53.168;5.800;2022-07-17T12:51:29;5.30;;;1.70;;
54855;SDS011;40748;53.168;5.800;2022-07-17T12:53:59;5.60;;;1.80;;
54855;SDS011;40748;53.168;5.800;2022-07-17T12:56:29;5.60;;;1.80;;
54855;SDS011;40748;53.168;5.800;2022-07-17T12:58:59;5.60;;;1.80;;
54855;SDS011;40748;53.168;5.800;2022-07-17T13:01:29;5.60;;;1.80;;
54855;SDS011;40748;53.168;5.800;2022-07-17T13:03:59;5.30;;;1.80;;
54855;SDS011;40748;53.168;5.800;2022-07-17T13:06:29;5.30;;;1.80;;
54855;SDS011;40748;53.168;5.800;2022-07-17T13:08:59;5.30;;;1.80;;
54855;SDS011;40748;53.168;5.800;2022-07-17T13:11:29;5.30;;;1.80;;
54855;SDS011;40748;53.168;5.800;2022-07-17T13:13:59;6.10;;;1.80;;
54855;SDS011;40748;53.168;5.800;2022-07-17T13:16:29;6.10;;;1.80;;
54855;SDS011;40748;53.168;5.800;2022-07-17T13:18:59;6.10;;;1.80;;
54855;SDS011;40748;53.168;5.800;2022-07-17T13:21:29;6.10;;;1.80;;
54855;SDS011;40748;53.168;5.800;2022-07-17T13:23:59;6.00;;;1.90;;
54855;SDS011;40748;53.168;5.800;2022-07-17T13:26:29;6.00;;;1.90;;
54855;SDS011;40748;53.168;5.800;2022-07-17T13:28:59;6.00;;;1.90;;
54855;SDS011;40748;53.168;5.800;2022-07-17T13:31:29;6.00;;;1.90;;
54855;SDS011;40748;53.168;5.800;2022-07-17T13:33:59;6.60;;;1.90;;
54855;SDS011;40748;53.168;5.800;2022-07-17T13:36:29;6.60;;;1.90;;
54855;SDS011;40748;53.168;5.800;2022-07-17T13:38:59;6.60;;;1.90;;
54855;SDS011;40748;53.168;5.800;2022-07-17T13:41:29;6.60;;;1.90;;
54855;SDS011;40748;53.168;5.800;2022-07-17T13:43:59;6.60;;;2.40;;
54855;SDS011;40748;53.168;5.800;2022-07-17T13:46:29;6.60;;;2.40;;
54855;SDS011;40748;53.168;5.800;2022-07-17T13:48:59;6.60;;;2.40;;
54855;SDS011;40748;53.168;5.800;2022-07-17T13:51:29;6.60;;;2.40;;
54855;SDS011;40748;53.168;5.800;2022-07-17T13:53:59;7.40;;;2.50;;
54855;SDS011;40748;53.168;5.800;2022-07-17T13:56:29;7.40;;;2.50;;
54855;SDS011;40748;53.168;5.800;2022-07-17T13:58:59;7.40;;;2.50;;
54855;SDS011;40748;53.168;5.800;2022-07-17T14:01:30;7.40;;;2.50;;
54855;SDS011;40748;53.168;5.800;2022-07-17T14:04:00;5.30;;;1.80;;
54855;SDS011;40748;53.168;5.800;2022-07-17T14:06:29;5.30;;;1.80;;
54855;SDS011;40748;53.168;5.800;2022-07-17T14:08:59;5.30;;;1.80;;
54855;SDS011;40748;53.168;5.800;2022-07-17T14:11:29;5.30;;;1.80;;
54855;SDS011;40748;53.168;5.800;2022-07-17T14:13:59;7.10;;;2.10;;
54855;SDS011;40748;53.168;5.800;2022-07-17T14:16:30;7.10;;;2.10;;
54855;SDS011;40748;53.168;5.800;2022-07-17T14:18:59;7.10;;;2.10;;
54855;SDS011;40748;53.168;5.800;2022-07-17T14:21:31;7.10;;;2.10;;
54855;SDS011;40748;53.168;5.800;2022-07-17T14:24:00;8.70;;;2.50;;
54855;SDS011;40748;53.168;5.800;2022-07-17T14:26:29;8.70;;;2.50;;
54855;SDS011;40748;53.168;5.800;2022-07-17T14:28:59;8.70;;;2.50;;
54855;SDS011;40748;53.168;5.800;2022-07-17T14:31:29;8.70;;;2.50;;
54855;SDS011;40748;53.168;5.800;2022-07-17T14:33:59;5.50;;;1.90;;
54855;SDS011;40748;53.168;5.800;2022-07-17T14:36:29;5.50;;;1.90;;
54855;SDS011;40748;53.168;5.800;2022-07-17T14:38:59;5.50;;;1.90;;
54855;SDS011;40748;53.168;5.800;2022-07-17T14:41:29;5.50;;;1.90;;
54855;SDS011;40748;53.168;5.800;2022-07-17T14:43:59;5.20;;;1.90;;
54855;SDS011;40748;53.168;5.800;2022-07-17T14:46:29;5.20;;;1.90;;
54855;SDS011;40748;53.168;5.800;2022-07-17T14:48:59;5.20;;;1.90;;
54855;SDS011;40748;53.168;5.800;2022-07-17T14:51:29;5.20;;;1.90;;
54855;SDS011;40748;53.168;5.800;2022-07-17T14:53:59;6.10;;;2.30;;
54855;SDS011;40748;53.168;5.800;2022-07-17T14:58:59;6.10;;;2.30;;
54855;SDS011;40748;53.168;5.800;2022-07-17T15:01:29;6.10;;;2.30;;
54855;SDS011;40748;53.168;5.800;2022-07-17T15:03:59;7.00;;;2.60;;
54855;SDS011;40748;53.168;5.800;2022-07-17T15:06:29;7.00;;;2.60;;
54855;SDS011;40748;53.168;5.800;2022-07-17T15:08:59;7.00;;;2.60;;
54855;SDS011;40748;53.168;5.800;2022-07-17T15:11:29;7.00;;;2.60;;
54855;SDS011;40748;53.168;5.800;2022-07-17T15:13:59;6.80;;;2.30;;
54855;SDS011;40748;53.168;5.800;2022-07-17T15:16:29;6.80;;;2.30;;
54855;SDS011;40748;53.168;5.800;2022-07-17T15:18:59;6.80;;;2.30;;
54855;SDS011;40748;53.168;5.800;2022-07-17T15:21:29;6.80;;;2.30;;
54855;SDS011;40748;53.168;5.800;2022-07-17T15:23:59;8.50;;;4.20;;
54855;SDS011;40748;53.168;5.800;2022-07-17T15:26:29;8.50;;;4.20;;
54855;SDS011;40748;53.168;5.800;2022-07-17T15:28:59;8.50;;;4.20;;
54855;SDS011;40748;53.168;5.800;2022-07-17T15:31:29;8.50;;;4.20;;
54855;SDS011;40748;53.168;5.800;2022-07-17T15:33:59;7.10;;;2.30;;
54855;SDS011;40748;53.168;5.800;2022-07-17T15:36:29;7.10;;;2.30;;